createdAt,value
2018-11-27T05:00:57.718Z,92.47
2018-11-27T05:01:57.583Z,92.23
2018-11-27T05:03:50.255Z,92.71
2018-11-27T05:04:50.140Z,92.71
2018-11-27T05:06:42.815Z,92.04
2018-11-27T05:07:42.722Z,92.71
2018-11-27T05:09:35.363Z,92.71
2018-11-27T05:10:35.233Z,92.33
2018-11-27T05:12:27.888Z,92.42
2018-11-27T05:13:27.779Z,92.14
2018-11-27T05:15:20.449Z,91.66
2018-11-27T05:16:20.320Z,92.04
2018-11-27T05:18:12.979Z,92.04
2018-11-27T05:19:12.861Z,91.28
2018-11-27T05:21:05.543Z,91.19
2018-11-27T05:22:05.411Z,91.47
2018-11-27T05:23:58.081Z,91.38
2018-11-27T05:24:57.959Z,91.00
2018-11-27T05:26:50.645Z,91.19
2018-11-27T05:27:50.513Z,91.00
2018-11-27T05:29:43.192Z,91.38
2018-11-27T05:30:43.058Z,91.47
2018-11-27T05:32:35.719Z,91.38
2018-11-27T05:33:35.602Z,91.09
2018-11-27T05:35:28.282Z,91.09
2018-11-27T05:36:28.149Z,91.47
2018-11-27T05:38:20.866Z,91.00
2018-11-27T05:39:20.699Z,91.19
2018-11-27T05:41:13.375Z,91.28
2018-11-27T05:42:13.246Z,91.00
2018-11-27T05:44:05.919Z,91.19
2018-11-27T05:45:05.801Z,91.09
2018-11-27T05:46:58.476Z,91.09
2018-11-27T05:47:58.346Z,91.28
2018-11-27T05:49:51.027Z,90.71
2018-11-27T05:50:50.901Z,90.52
2018-11-27T05:52:43.555Z,91.19
2018-11-27T05:53:43.445Z,90.33
2018-11-27T05:55:36.114Z,91.38
2018-11-27T05:56:35.988Z,91.38
2018-11-27T05:58:28.641Z,90.52
2018-11-27T05:59:28.532Z,90.71
2018-11-27T06:01:21.210Z,90.62
2018-11-27T06:02:21.072Z,91.09
2018-11-27T06:04:13.728Z,91.09
2018-11-27T06:05:13.623Z,91.00
2018-11-27T06:07:06.293Z,90.52
2018-11-27T06:08:06.162Z,90.24
2018-11-27T06:09:58.842Z,90.05
2018-11-27T06:10:58.707Z,90.14
2018-11-27T06:12:51.365Z,90.24
2018-11-27T06:13:51.251Z,90.33
2018-11-27T06:15:43.925Z,89.76
2018-11-27T06:16:43.796Z,89.95
2018-11-27T06:18:36.463Z,90.14
2018-11-27T06:19:36.344Z,89.95
2018-11-27T06:21:29.021Z,89.76
2018-11-27T06:22:28.885Z,89.76
2018-11-27T06:24:21.551Z,89.39
2018-11-27T06:25:21.431Z,90.14
2018-11-27T06:27:14.108Z,90.05
2018-11-27T06:28:13.974Z,89.86
2018-11-27T06:30:06.653Z,89.58
2018-11-27T06:31:06.524Z,89.39
2018-11-27T06:32:59.186Z,89.39
2018-11-27T06:33:59.069Z,89.29
2018-11-27T06:35:51.746Z,89.67
2018-11-27T06:36:51.618Z,89.48
2018-11-27T06:38:44.277Z,89.58
2018-11-27T06:39:44.163Z,89.95
2018-11-27T06:41:36.838Z,89.76
2018-11-27T06:42:36.708Z,89.29
2018-11-27T06:44:29.389Z,89.00
2018-11-27T06:45:29.252Z,89.29
2018-11-27T06:47:21.910Z,90.14
2018-11-27T06:48:21.801Z,89.95
2018-11-27T06:50:14.476Z,89.39
2018-11-27T06:51:14.343Z,89.39
2018-11-27T06:53:06.996Z,89.29
2018-11-27T06:54:06.888Z,89.39
2018-11-27T06:55:59.564Z,89.00
2018-11-27T06:56:59.427Z,89.39
2018-11-27T06:58:52.087Z,89.48
2018-11-27T06:59:51.979Z,88.72
2018-11-27T07:01:44.665Z,88.81
2018-11-27T07:02:44.528Z,89.10
2018-11-27T07:04:37.205Z,89.29
2018-11-27T07:05:37.080Z,89.39
2018-11-27T07:07:29.738Z,89.20
2018-11-27T07:08:29.626Z,89.00
2018-11-27T07:10:22.310Z,89.58
2018-11-27T07:11:22.175Z,89.39
2018-11-27T07:13:14.831Z,89.58
2018-11-27T07:14:14.720Z,89.48
2018-11-27T07:16:07.392Z,89.48
2018-11-27T07:17:07.264Z,89.58
2018-11-27T07:18:59.921Z,90.24
2018-11-27T07:19:59.806Z,89.39
2018-11-27T07:21:52.488Z,89.10
2018-11-27T07:22:52.355Z,89.39
2018-11-27T07:24:45.036Z,89.20
2018-11-27T07:25:44.905Z,89.10
2018-11-27T07:27:37.568Z,89.76
2018-11-27T07:28:37.456Z,89.58
2018-11-27T07:30:30.131Z,89.67
2018-11-27T07:31:29.997Z,89.48
2018-11-27T07:33:22.660Z,89.00
2018-11-27T07:34:22.543Z,89.10
2018-11-27T07:36:15.230Z,89.48
2018-11-27T07:37:15.103Z,89.39
2018-11-27T07:39:07.767Z,89.29
2018-11-27T07:40:07.654Z,89.48
2018-11-27T07:42:00.328Z,89.48
2018-11-27T07:43:00.201Z,89.29
2018-11-27T07:44:52.874Z,89.58
2018-11-27T07:45:55.245Z,89.29
2018-11-27T07:47:45.565Z,89.39
2018-11-27T07:48:45.291Z,89.29
2018-11-27T07:50:38.024Z,89.29
2018-11-27T07:51:37.861Z,88.91
2018-11-27T07:53:30.524Z,89.29
2018-11-27T07:54:30.411Z,89.10
2018-11-27T07:56:23.176Z,89.39
2018-11-27T07:57:22.999Z,89.10
2018-11-27T07:59:15.704Z,88.81
2018-11-27T08:00:15.589Z,88.72
2018-11-27T08:02:08.261Z,89.58
2018-11-27T08:03:08.130Z,88.81
2018-11-27T08:05:00.803Z,88.91
2018-11-27T08:06:00.680Z,89.00
2018-11-27T08:07:53.333Z,88.81
2018-11-27T08:08:53.228Z,88.81
2018-11-27T08:10:45.902Z,89.39
2018-11-27T08:11:45.774Z,89.39
2018-11-27T08:13:38.434Z,89.39
2018-11-27T08:14:38.318Z,89.10
2018-11-27T08:16:31.000Z,89.10
2018-11-27T08:17:30.866Z,89.29
2018-11-27T08:19:23.530Z,89.10
2018-11-27T08:20:23.412Z,89.39
2018-11-27T08:22:16.093Z,89.10
2018-11-27T08:23:15.960Z,88.91
2018-11-27T08:25:08.636Z,88.72
2018-11-27T08:26:08.504Z,88.91
2018-11-27T08:28:01.194Z,88.91
2018-11-27T08:29:01.083Z,89.00
2018-11-27T08:30:53.759Z,88.91
2018-11-27T08:31:53.630Z,88.62
2018-11-27T08:33:46.284Z,88.34
2018-11-27T08:34:46.175Z,88.72
2018-11-27T08:36:38.886Z,88.34
2018-11-27T08:37:38.741Z,88.43
2018-11-27T08:39:31.487Z,88.62
2018-11-27T08:40:31.264Z,88.43
2018-11-27T08:42:24.215Z,88.53
2018-11-27T08:43:24.127Z,88.72
2018-11-27T08:45:16.551Z,88.76
2018-11-27T08:46:16.386Z,88.72
2018-11-27T08:48:09.118Z,88.72
2018-11-27T08:49:08.948Z,88.43
2018-11-27T08:51:01.650Z,88.53
2018-11-27T08:52:01.512Z,88.62
2018-11-27T08:53:54.192Z,88.72
2018-11-27T08:54:54.085Z,88.62
2018-11-27T08:56:46.807Z,88.06
2018-11-27T08:57:46.648Z,88.72
2018-11-27T08:59:39.397Z,88.62
2018-11-27T09:00:39.289Z,88.34
2018-11-27T09:02:32.006Z,88.72
2018-11-27T09:03:31.844Z,88.29
2018-11-27T09:05:24.524Z,88.29
2018-11-27T09:06:24.394Z,88.24
2018-11-27T09:08:17.067Z,88.62
2018-11-27T09:09:16.942Z,88.34
2018-11-27T09:11:09.641Z,88.86
2018-11-27T09:12:09.491Z,88.76
2018-11-27T09:14:02.259Z,88.39
2018-11-27T09:15:02.113Z,88.01
2018-11-27T09:16:54.831Z,88.29
2018-11-27T09:17:54.689Z,88.29
2018-11-27T09:19:47.363Z,88.20
2018-11-27T09:20:47.241Z,87.91
2018-11-27T09:22:39.918Z,88.01
2018-11-27T09:23:39.804Z,88.29
2018-11-27T09:25:32.511Z,88.48
2018-11-27T09:26:32.381Z,88.76
2018-11-27T09:28:25.066Z,88.67
2018-11-27T09:29:24.958Z,88.48
2018-11-27T09:31:17.639Z,88.39
2018-11-27T09:32:17.479Z,88.10
2018-11-27T09:34:10.171Z,88.29
2018-11-27T09:35:10.154Z,88.86
2018-11-27T09:37:02.720Z,88.20
2018-11-27T09:38:02.593Z,88.01
2018-11-27T09:39:55.254Z,87.91
2018-11-27T09:40:55.139Z,87.53
2018-11-27T09:42:47.815Z,87.72
2018-11-27T09:43:47.686Z,87.91
2018-11-27T09:45:40.360Z,87.82
2018-11-27T09:46:40.232Z,87.82
2018-11-27T09:48:32.888Z,87.82
2018-11-27T09:49:32.780Z,88.10
2018-11-27T09:51:25.481Z,87.62
2018-11-27T09:52:25.323Z,87.82
2018-11-27T09:54:17.987Z,87.53
2018-11-27T09:55:17.921Z,87.82
2018-11-27T09:57:10.556Z,87.62
2018-11-27T09:58:10.423Z,87.82
2018-11-27T10:00:03.109Z,87.62
2018-11-27T10:01:02.977Z,87.15
2018-11-27T10:02:55.649Z,87.34
2018-11-27T10:03:55.551Z,87.91
2018-11-27T10:05:48.210Z,87.82
2018-11-27T10:06:48.083Z,87.62
2018-11-27T10:08:40.790Z,87.62
2018-11-27T10:09:40.642Z,87.34
2018-11-27T10:11:33.333Z,87.15
2018-11-27T10:12:33.209Z,86.87
2018-11-27T10:14:26.022Z,87.34
2018-11-27T10:15:25.905Z,87.34
2018-11-27T10:17:18.624Z,86.87
2018-11-27T10:18:18.445Z,87.05
2018-11-27T10:20:11.166Z,86.96
2018-11-27T10:21:11.011Z,87.43
2018-11-27T10:23:03.665Z,86.68
2018-11-27T10:24:03.558Z,86.77
2018-11-27T10:25:56.281Z,86.77
2018-11-27T10:26:56.159Z,86.68
2018-11-27T10:28:48.841Z,86.58
2018-11-27T10:29:48.698Z,86.87
2018-11-27T10:31:41.395Z,87.24
2018-11-27T10:32:41.250Z,87.43
2018-11-27T10:34:33.901Z,86.96
2018-11-27T10:35:33.843Z,86.68
2018-11-27T10:37:26.545Z,86.58
2018-11-27T10:38:26.519Z,86.49
2018-11-27T10:40:19.129Z,86.77
2018-11-27T10:41:18.978Z,86.77
2018-11-27T10:43:11.757Z,86.68
2018-11-27T10:44:11.585Z,87.05
2018-11-27T10:46:04.285Z,86.96
2018-11-27T10:47:04.171Z,86.58
2018-11-27T10:48:56.799Z,86.68
2018-11-27T10:49:56.682Z,86.77
2018-11-27T10:51:49.364Z,86.96
2018-11-27T10:52:49.228Z,86.49
2018-11-27T10:54:41.885Z,86.58
2018-11-27T10:55:41.780Z,86.30
2018-11-27T10:57:34.460Z,86.77
2018-11-27T10:58:34.337Z,86.77
2018-11-27T11:00:27.003Z,86.77
2018-11-27T11:01:26.889Z,87.43
2018-11-27T11:03:19.566Z,87.24
2018-11-27T11:04:19.437Z,87.53
2018-11-27T11:06:12.114Z,87.05
2018-11-27T11:07:11.989Z,87.24
2018-11-27T11:09:04.653Z,87.34
2018-11-27T11:10:04.532Z,87.15
2018-11-27T11:11:59.434Z,86.87
2018-11-27T11:12:57.085Z,86.68
2018-11-27T11:14:49.743Z,86.68
2018-11-27T11:15:49.636Z,86.77
2018-11-27T11:17:42.317Z,86.68
2018-11-27T11:18:42.188Z,86.68
2018-11-27T11:20:34.853Z,86.87
2018-11-27T11:21:34.734Z,86.87
2018-11-27T11:23:27.416Z,86.68
2018-11-27T11:24:27.285Z,86.49
2018-11-27T11:26:19.986Z,86.20
2018-11-27T11:27:19.838Z,86.43
2018-11-27T11:29:12.501Z,86.43
2018-11-27T11:30:12.396Z,86.43
2018-11-27T11:32:05.068Z,86.34
2018-11-27T11:33:04.942Z,86.34
2018-11-27T11:34:57.610Z,85.77
2018-11-27T11:35:57.495Z,85.68
2018-11-27T11:37:50.179Z,85.68
2018-11-27T11:38:50.056Z,85.86
2018-11-27T11:40:42.726Z,85.68
2018-11-27T11:41:42.617Z,85.58
2018-11-27T11:43:35.292Z,85.49
2018-11-27T11:44:35.162Z,85.11
2018-11-27T11:46:27.921Z,84.63
2018-11-27T11:47:27.774Z,84.44
2018-11-27T11:49:20.416Z,84.16
2018-11-27T11:50:20.307Z,84.82
2018-11-27T11:52:13.089Z,84.44
2018-11-27T11:53:12.890Z,83.78
2018-11-27T11:55:05.564Z,83.30
2018-11-27T11:56:05.445Z,81.97
2018-11-27T11:57:58.130Z,82.16
2018-11-27T11:58:58.002Z,82.35
2018-11-27T12:00:50.668Z,82.16
2018-11-27T12:01:50.549Z,82.35
2018-11-27T12:03:43.287Z,83.49
2018-11-27T12:04:43.101Z,83.01
2018-11-27T12:06:35.813Z,83.39
2018-11-27T12:07:35.680Z,83.20
2018-11-27T12:09:28.432Z,83.39
2018-11-27T12:10:28.268Z,82.73
2018-11-27T12:12:21.003Z,80.74
2018-11-27T12:13:20.823Z,81.30
2018-11-27T12:15:13.479Z,82.54
2018-11-27T12:16:13.369Z,82.92
2018-11-27T12:18:06.041Z,83.20
2018-11-27T12:19:05.918Z,83.39
2018-11-27T12:20:58.584Z,83.01
2018-11-27T12:21:58.469Z,83.20
2018-11-27T12:23:51.152Z,82.73
2018-11-27T12:24:51.029Z,82.82
2018-11-27T12:26:43.703Z,81.87
2018-11-27T12:27:43.580Z,82.16
2018-11-27T12:29:36.242Z,82.12
2018-11-27T12:30:36.125Z,82.12
2018-11-27T12:32:29.136Z,82.03
2018-11-27T12:33:28.681Z,82.07
2018-11-27T12:35:21.337Z,81.59
2018-11-27T12:36:21.229Z,81.49
2018-11-27T12:38:13.913Z,80.83
2018-11-27T12:39:13.786Z,80.60
2018-11-27T12:41:10.168Z,80.79
2018-11-27T12:42:06.337Z,81.07
2018-11-27T12:43:59.018Z,80.79
2018-11-27T12:44:58.891Z,80.41
2018-11-27T12:46:51.566Z,80.98
2018-11-27T12:47:51.447Z,80.69
2018-11-27T12:49:44.106Z,81.26
2018-11-27T12:50:43.999Z,81.55
2018-11-27T12:52:36.669Z,80.98
2018-11-27T12:53:36.544Z,81.21
2018-11-27T12:55:29.204Z,79.36
2018-11-27T12:56:29.094Z,79.55
2018-11-27T12:58:21.769Z,80.22
2018-11-27T12:59:21.643Z,79.74
2018-11-27T13:01:14.301Z,79.46
2018-11-27T13:02:14.191Z,80.51
2018-11-27T13:04:06.869Z,80.79
2018-11-27T13:05:06.748Z,80.79
2018-11-27T13:06:59.443Z,80.22
2018-11-27T13:07:59.326Z,80.32
2018-11-27T13:09:51.955Z,80.22
2018-11-27T13:10:51.837Z,80.41
2018-11-27T13:12:44.560Z,79.74
2018-11-27T13:13:44.436Z,79.46
2018-11-27T13:15:37.166Z,78.99
2018-11-27T13:16:36.989Z,78.80
2018-11-27T13:18:29.682Z,78.89
2018-11-27T13:19:29.561Z,79.27
2018-11-27T13:21:22.235Z,79.50
2018-11-27T13:22:22.124Z,79.31
2018-11-27T13:24:14.805Z,77.84
2018-11-27T13:25:14.714Z,78.61
2018-11-27T13:27:07.381Z,78.93
2018-11-27T13:28:07.251Z,79.08
2018-11-27T13:29:59.980Z,78.51
2018-11-27T13:30:59.818Z,78.61
2018-11-27T13:32:52.603Z,78.80
2018-11-27T13:33:52.443Z,78.61
2018-11-27T13:35:45.125Z,78.74
2018-11-27T13:36:45.043Z,78.55
2018-11-27T13:38:37.675Z,78.64
2018-11-27T13:39:37.545Z,78.36
2018-11-27T13:41:30.232Z,77.70
2018-11-27T13:42:30.133Z,78.08
2018-11-27T13:44:22.829Z,77.18
2018-11-27T13:45:22.714Z,77.37
2018-11-27T13:47:15.485Z,77.47
2018-11-27T13:48:15.285Z,77.09
2018-11-27T13:50:07.981Z,77.09
2018-11-27T13:51:07.856Z,77.47
2018-11-27T13:53:00.571Z,77.94
2018-11-27T13:54:00.410Z,77.84
2018-11-27T13:55:53.118Z,77.37
2018-11-27T13:56:53.008Z,76.90
2018-11-27T13:58:45.692Z,77.47
2018-11-27T13:59:45.567Z,77.09
2018-11-27T14:01:38.253Z,78.61
2018-11-27T14:02:38.142Z,78.80
2018-11-27T14:04:30.811Z,78.03
2018-11-27T14:05:30.713Z,79.08
2018-11-27T14:07:23.425Z,77.09
2018-11-27T14:08:23.323Z,78.32
2018-11-27T14:10:16.219Z,77.66
2018-11-27T14:11:19.153Z,78.03
2018-11-27T14:13:08.791Z,78.61
2018-11-27T14:14:08.660Z,79.46
2018-11-27T14:16:01.318Z,78.61
2018-11-27T14:17:01.202Z,77.84
2018-11-27T14:18:53.990Z,78.23
2018-11-27T14:19:53.898Z,77.94
2018-11-27T14:21:46.728Z,78.03
2018-11-27T14:22:46.452Z,78.13
2018-11-27T14:24:39.194Z,78.89
2018-11-27T14:25:39.027Z,78.03
2018-11-27T14:27:31.753Z,78.61
2018-11-27T14:28:31.608Z,78.61
2018-11-27T14:30:24.271Z,79.74
2018-11-27T14:31:24.182Z,79.27
2018-11-27T14:33:16.903Z,78.89
2018-11-27T14:34:16.770Z,79.27
2018-11-27T14:36:09.477Z,79.46
2018-11-27T14:37:09.301Z,78.80
2018-11-27T14:39:01.953Z,79.74
2018-11-27T14:40:01.854Z,79.65
2018-11-27T14:41:54.504Z,79.17
2018-11-27T14:42:54.379Z,78.61
2018-11-27T14:44:47.051Z,79.08
2018-11-27T14:45:46.928Z,78.51
2018-11-27T14:47:39.599Z,78.89
2018-11-27T14:48:39.467Z,78.75
2018-11-27T14:50:32.135Z,78.85
2018-11-27T14:51:32.016Z,79.33
2018-11-27T14:53:24.700Z,78.95
2018-11-27T14:54:24.561Z,79.33
2018-11-27T14:56:17.222Z,79.27
2018-11-27T14:57:17.110Z,78.75
2018-11-27T14:59:09.786Z,78.66
2018-11-27T15:00:09.661Z,79.14
2018-11-27T15:02:02.317Z,79.42
2018-11-27T15:03:02.211Z,79.42
2018-11-27T15:04:54.879Z,77.62
2018-11-27T15:05:54.749Z,77.90
2018-11-27T15:07:47.426Z,78.66
2018-11-27T15:08:47.293Z,78.56
2018-11-27T15:10:39.963Z,78.19
2018-11-27T15:11:39.850Z,78.28
2018-11-27T15:13:32.518Z,77.90
2018-11-27T15:14:32.399Z,78.28
2018-11-27T15:16:25.047Z,78.56
2018-11-27T15:17:24.938Z,78.00
2018-11-27T15:19:17.605Z,78.56
2018-11-27T15:20:17.482Z,78.85
2018-11-27T15:22:10.142Z,77.71
2018-11-27T15:23:10.025Z,78.28
2018-11-27T15:25:02.705Z,78.09
2018-11-27T15:26:02.574Z,78.19
2018-11-27T15:27:55.250Z,78.95
2018-11-27T15:28:55.116Z,79.71
2018-11-27T15:30:47.778Z,79.33
2018-11-27T15:31:47.661Z,78.66
2018-11-27T15:33:40.345Z,79.42
2018-11-27T15:34:40.213Z,78.85
2018-11-27T15:36:32.870Z,78.66
2018-11-27T15:37:32.758Z,78.56
2018-11-27T15:39:25.436Z,78.28
2018-11-27T15:40:25.310Z,78.85
2018-11-27T15:42:17.985Z,79.42
2018-11-27T15:43:17.852Z,79.14
2018-11-27T15:45:10.522Z,79.23
2018-11-27T15:46:10.393Z,79.61
2018-11-27T15:48:03.259Z,79.23
2018-11-27T15:49:02.944Z,79.23
2018-11-27T15:50:56.103Z,78.95
2018-11-27T15:51:55.690Z,78.66
2018-11-27T15:53:48.370Z,79.04
2018-11-27T15:54:48.235Z,79.71
2018-11-27T15:56:40.904Z,79.80
2018-11-27T15:57:40.784Z,79.33
2018-11-27T15:59:33.470Z,80.04
2018-11-27T16:00:33.335Z,80.04
2018-11-27T16:02:26.012Z,80.04
2018-11-27T16:03:25.883Z,80.24
2018-11-27T16:05:18.538Z,80.99
2018-11-27T16:06:18.429Z,80.99
2018-11-27T16:08:11.098Z,81.56
2018-11-27T16:09:10.971Z,81.85
2018-11-27T16:11:03.630Z,82.23
2018-11-27T16:12:03.526Z,82.98
2018-11-27T16:13:57.076Z,82.89
2018-11-27T16:14:56.109Z,82.04
2018-11-27T16:16:48.768Z,82.04
2018-11-27T16:17:48.654Z,82.42
2018-11-27T16:19:41.332Z,82.42
2018-11-27T16:20:41.202Z,82.32
2018-11-27T16:22:33.873Z,82.04
2018-11-27T16:23:33.745Z,81.75
2018-11-27T16:25:26.407Z,82.32
2018-11-27T16:26:26.292Z,82.60
2018-11-27T16:28:18.964Z,82.32
2018-11-27T16:29:18.837Z,82.23
2018-11-27T16:31:11.494Z,82.32
2018-11-27T16:32:11.382Z,82.51
2018-11-27T16:34:04.059Z,82.89
2018-11-27T16:35:03.935Z,82.79
2018-11-27T16:36:56.596Z,82.70
2018-11-27T16:37:56.486Z,82.51
2018-11-27T16:39:49.161Z,82.70
2018-11-27T16:40:49.032Z,82.98
2018-11-27T16:42:41.715Z,82.70
2018-11-27T16:43:41.577Z,82.89
2018-11-27T16:45:34.236Z,82.98
2018-11-27T16:46:34.125Z,82.98
2018-11-27T16:48:26.801Z,83.94
2018-11-27T16:49:26.670Z,83.94
2018-11-27T16:51:19.335Z,83.94
2018-11-27T16:52:19.216Z,83.65
2018-11-27T16:54:11.895Z,84.12
2018-11-27T16:55:11.766Z,84.03
2018-11-27T16:57:04.437Z,83.36
2018-11-27T16:58:04.307Z,83.27
2018-11-27T16:59:56.980Z,84.78
2018-11-27T17:00:56.846Z,84.31
2018-11-27T17:02:50.354Z,84.59
2018-11-27T17:03:49.392Z,83.94
2018-11-27T17:05:42.050Z,83.08
2018-11-27T17:06:41.935Z,84.03
2018-11-27T17:08:34.637Z,83.74
2018-11-27T17:09:34.493Z,83.46
2018-11-27T17:11:27.138Z,82.42
2018-11-27T17:12:27.028Z,82.70
2018-11-27T17:14:19.699Z,83.74
2018-11-27T17:15:19.573Z,83.65
2018-11-27T17:17:12.226Z,83.94
2018-11-27T17:18:12.119Z,83.65
2018-11-27T17:20:04.802Z,84.98
2018-11-27T17:21:04.668Z,84.50
2018-11-27T17:22:57.332Z,83.74
2018-11-27T17:23:57.206Z,83.65
2018-11-27T17:25:49.863Z,83.27
2018-11-27T17:26:49.752Z,83.84
2018-11-27T17:28:42.428Z,83.27
2018-11-27T17:29:42.293Z,83.46
2018-11-27T17:31:34.959Z,83.65
2018-11-27T17:32:34.845Z,83.36
2018-11-27T17:34:27.526Z,83.08
2018-11-27T17:35:27.385Z,83.55
2018-11-27T17:37:20.047Z,83.84
2018-11-27T17:38:19.938Z,84.03
2018-11-27T17:40:12.610Z,82.89
2018-11-27T17:41:12.476Z,82.89
2018-11-27T17:43:05.310Z,83.08
2018-11-27T17:44:05.025Z,82.70
2018-11-27T17:45:57.679Z,82.79
2018-11-27T17:46:57.561Z,82.79
2018-11-27T17:48:50.237Z,82.98
2018-11-27T17:49:50.106Z,82.89
2018-11-27T17:51:42.777Z,83.08
2018-11-27T17:52:42.653Z,83.08
2018-11-27T17:54:35.334Z,82.79
2018-11-27T17:55:35.203Z,83.17
2018-11-27T17:57:27.866Z,82.89
2018-11-27T17:58:27.753Z,83.17
2018-11-27T18:00:20.426Z,83.08
2018-11-27T18:01:20.299Z,83.08
2018-11-27T18:03:12.996Z,83.17
2018-11-27T18:04:12.860Z,83.36
2018-11-27T18:06:05.523Z,82.98
2018-11-27T18:07:05.405Z,82.89
2018-11-27T18:08:58.081Z,83.46
2018-11-27T18:09:57.955Z,83.51
2018-11-27T18:11:50.613Z,83.80
2018-11-27T18:12:50.494Z,84.22
2018-11-27T18:14:43.170Z,84.12
2018-11-27T18:15:43.046Z,84.12
2018-11-27T18:17:35.701Z,84.22
2018-11-27T18:18:35.586Z,84.22
2018-11-27T18:20:28.263Z,83.94
2018-11-27T18:21:28.131Z,83.17
2018-11-27T18:23:20.810Z,83.46
2018-11-27T18:24:20.681Z,83.27
2018-11-27T18:26:13.344Z,83.27
2018-11-27T18:27:13.225Z,82.60
2018-11-27T18:29:05.936Z,82.89
2018-11-27T18:30:05.770Z,82.79
2018-11-27T18:31:58.432Z,82.89
2018-11-27T18:32:58.319Z,82.98
2018-11-27T18:34:50.996Z,83.17
2018-11-27T18:35:50.900Z,83.46
2018-11-27T18:37:43.514Z,82.89
2018-11-27T18:38:43.407Z,82.89
2018-11-27T18:40:36.084Z,83.17
2018-11-27T18:41:35.944Z,83.55
2018-11-27T18:43:28.633Z,83.84
2018-11-27T18:44:28.530Z,83.80
2018-11-27T18:46:21.638Z,83.27
2018-11-27T18:47:21.529Z,83.46
2018-11-27T18:49:14.207Z,83.89
2018-11-27T18:50:14.075Z,83.17
2018-11-27T18:52:06.739Z,84.27
2018-11-27T18:53:06.623Z,83.51
2018-11-27T18:54:59.296Z,83.89
2018-11-27T18:55:59.168Z,83.42
2018-11-27T18:57:51.825Z,83.61
2018-11-27T18:58:51.715Z,84.36
2018-11-27T19:00:44.387Z,84.46
2018-11-27T19:01:44.266Z,84.65
2018-11-27T19:03:36.927Z,84.65
2018-11-27T19:04:36.798Z,84.94
2018-11-27T19:06:29.458Z,85.31
2018-11-27T19:07:29.346Z,85.97
2018-11-27T19:09:22.020Z,85.31
2018-11-27T19:10:21.885Z,85.22
2018-11-27T19:12:14.552Z,85.88
2018-11-27T19:13:14.471Z,86.12
2018-11-27T19:15:07.186Z,86.31
2018-11-27T19:16:06.975Z,86.12
2018-11-27T19:17:59.671Z,85.93
2018-11-27T19:18:59.522Z,86.50
2018-11-27T19:20:52.198Z,85.93
2018-11-27T19:21:52.131Z,86.69
2018-11-27T19:23:44.790Z,86.69
2018-11-27T19:24:44.653Z,87.16
2018-11-27T19:26:37.966Z,86.79
2018-11-27T19:27:37.221Z,86.88
2018-11-27T19:29:29.910Z,86.88
2018-11-27T19:30:32.153Z,87.64
2018-11-27T19:32:22.439Z,87.54
2018-11-27T19:33:22.323Z,87.54
2018-11-27T19:35:15.483Z,87.54
2018-11-27T19:36:15.357Z,87.64
2018-11-27T19:38:08.015Z,87.78
2018-11-27T19:39:07.902Z,87.64
2018-11-27T19:41:00.580Z,87.45
2018-11-27T19:42:00.456Z,87.64
2018-11-27T19:43:53.125Z,87.59
2018-11-27T19:44:53.003Z,87.50
2018-11-27T19:46:45.669Z,87.98
2018-11-27T19:47:45.543Z,88.54
2018-11-27T19:49:38.219Z,88.07
2018-11-27T19:50:38.087Z,88.07
2018-11-27T19:52:30.738Z,87.98
2018-11-27T19:53:30.624Z,88.07
2018-11-27T19:55:23.305Z,87.78
2018-11-27T19:56:23.165Z,88.64
2018-11-27T19:58:15.824Z,88.26
2018-11-27T19:59:15.710Z,88.54
2018-11-27T20:01:08.388Z,88.64
2018-11-27T20:02:08.255Z,88.82
2018-11-27T20:04:00.925Z,89.20
2018-11-27T20:05:00.796Z,89.20
2018-11-27T20:06:53.457Z,89.20
2018-11-27T20:07:53.339Z,89.20
2018-11-27T20:09:46.008Z,89.30
2018-11-27T20:10:45.881Z,89.11
2018-11-27T20:12:39.043Z,89.58
2018-11-27T20:13:38.922Z,89.20
2018-11-27T20:15:31.603Z,89.20
2018-11-27T20:16:31.471Z,88.82
2018-11-27T20:18:24.121Z,89.01
2018-11-27T20:19:24.009Z,89.30
2018-11-27T20:21:16.684Z,89.20
2018-11-27T20:22:16.547Z,89.20
2018-11-27T20:24:09.222Z,89.39
2018-11-27T20:25:09.087Z,90.06
2018-11-27T20:27:01.743Z,89.68
2018-11-27T20:28:01.626Z,89.87
2018-11-27T20:29:54.298Z,89.87
2018-11-27T20:30:54.168Z,89.96
2018-11-27T20:32:46.838Z,89.96
2018-11-27T20:33:46.734Z,89.96
2018-11-27T20:35:39.401Z,89.96
2018-11-27T20:36:39.273Z,90.06
2018-11-27T20:38:31.931Z,90.39
2018-11-27T20:39:31.816Z,90.25
2018-11-27T20:41:24.486Z,90.30
2018-11-27T20:42:24.356Z,90.11
2018-11-27T20:44:17.128Z,90.86
2018-11-27T20:45:19.620Z,90.11
2018-11-27T20:47:09.593Z,90.67
2018-11-27T20:48:09.578Z,90.39
2018-11-27T20:50:02.151Z,90.58
2018-11-27T20:51:02.013Z,90.48
2018-11-27T20:52:54.668Z,90.48
2018-11-27T20:53:54.553Z,90.48
2018-11-27T20:55:47.383Z,90.67
2018-11-27T20:56:47.092Z,90.86
2018-11-27T20:58:39.754Z,90.58
2018-11-27T20:59:39.665Z,90.86
2018-11-27T21:01:32.427Z,90.96
2018-11-27T21:02:32.300Z,90.39
2018-11-27T21:04:24.974Z,90.58
2018-11-27T21:05:24.839Z,90.67
2018-11-27T21:07:17.496Z,90.67
2018-11-27T21:08:17.377Z,90.77
2018-11-27T21:10:10.060Z,90.48
2018-11-27T21:11:09.917Z,90.48
2018-11-27T21:13:02.571Z,90.67
2018-11-27T21:14:02.459Z,90.77
2018-11-27T21:15:55.129Z,90.58
2018-11-27T21:16:55.000Z,90.48
2018-11-27T21:18:47.669Z,90.77
2018-11-27T21:19:47.542Z,90.58
2018-11-27T21:21:40.217Z,90.58
2018-11-27T21:22:40.085Z,90.30
2018-11-27T21:24:32.769Z,90.96
2018-11-27T21:25:32.633Z,90.86
2018-11-27T21:27:25.294Z,91.43
2018-11-27T21:28:25.177Z,90.30
2018-11-27T21:30:17.850Z,91.15
2018-11-27T21:31:17.714Z,90.96
2018-11-27T21:33:10.369Z,91.15
2018-11-27T21:34:10.258Z,91.24
2018-11-27T21:36:02.930Z,91.15
2018-11-27T21:37:02.795Z,91.05
2018-11-27T21:38:55.472Z,91.24
2018-11-27T21:39:55.337Z,91.43
2018-11-27T21:41:48.002Z,91.43
2018-11-27T21:42:47.888Z,91.43
2018-11-27T21:44:40.560Z,91.24
2018-11-27T21:45:40.429Z,90.96
2018-11-27T21:47:33.115Z,91.43
2018-11-27T21:48:32.981Z,91.05
2018-11-27T21:50:25.660Z,90.96
2018-11-27T21:51:25.523Z,91.15
2018-11-27T21:53:18.188Z,91.15
2018-11-27T21:54:18.064Z,91.43
2018-11-27T21:56:10.750Z,91.24
2018-11-27T21:57:10.622Z,91.24
2018-11-27T21:59:03.291Z,91.15
2018-11-27T22:00:03.164Z,91.15
2018-11-27T22:01:55.811Z,91.86
2018-11-27T22:02:55.702Z,91.48
2018-11-27T22:04:48.370Z,91.67
2018-11-27T22:05:48.241Z,91.67
2018-11-27T22:07:40.895Z,91.72
2018-11-27T22:08:40.783Z,91.81
2018-11-27T22:10:33.457Z,91.24
2018-11-27T22:11:33.318Z,91.15
2018-11-27T22:13:25.976Z,91.67
2018-11-27T22:14:25.862Z,91.77
2018-11-27T22:16:18.536Z,91.96
2018-11-27T22:17:18.404Z,91.29
2018-11-27T22:19:12.073Z,91.96
2018-11-27T22:20:11.939Z,91.67
2018-11-27T22:22:04.598Z,91.86
2018-11-27T22:23:04.487Z,92.14
2018-11-27T22:24:57.155Z,91.77
2018-11-27T22:25:57.021Z,91.86
2018-11-27T22:27:49.679Z,91.86
2018-11-27T22:28:49.561Z,91.86
2018-11-27T22:30:42.235Z,91.86
2018-11-27T22:31:42.096Z,91.96
2018-11-27T22:33:34.756Z,92.05
2018-11-27T22:34:34.635Z,92.52
2018-11-27T22:36:27.303Z,92.71
2018-11-27T22:37:27.178Z,92.61
2018-11-27T22:39:19.854Z,92.61
2018-11-27T22:40:19.721Z,92.14
2018-11-27T22:42:12.385Z,92.43
2018-11-27T22:43:12.260Z,93.37
2018-11-27T22:45:04.936Z,92.43
2018-11-27T22:46:04.808Z,92.90
2018-11-27T22:47:57.461Z,93.09
2018-11-27T22:48:57.347Z,92.99
2018-11-27T22:50:50.025Z,92.71
2018-11-27T22:51:49.891Z,92.61
2018-11-27T22:53:42.551Z,92.43
2018-11-27T22:54:42.433Z,92.61
2018-11-27T22:56:35.111Z,92.61
2018-11-27T22:57:34.982Z,92.52
2018-11-27T22:59:27.651Z,92.71
